Terminal Aerodrome Forecast
Issued by NWS Indianapolis, IN

Home | Current Version | Previous Version | Text Only | Print | Product List | Glossary On
Versions: 1 2 3 4 5 6 7 8 9 10 11 12 13 14 15 16 17 18 19 20 21 22 23 24 25 26
000
FTUS43 KIND 211125
TAFIND
TAF
KIND 211125Z 2112/2218 17004KT 2SM -DZ BR OVC010
     FM211900 19007KT 3SM -DZ BR OVC010
     FM220000 18007KT 1SM -SHRA BR OVC007 WS020/22035KT
     FM220900 17009KT 4SM BR OVC008 WS020/20040KT
     FM221200 16010KT 2SM SHRA OVC010 WS020/20045KT
     FM221400 17013KT 3SM SHRA OVC020 WS020/19045KT=

USA.gov is the U.S. government's official web portal to all federal, state and local government web resources and services.